createdAt,value
2019-04-12T00:00:23.417Z,2.1
2019-04-12T00:01:33.761Z,2.2
2019-04-12T00:02:40.970Z,2.2
2019-04-12T00:03:48.167Z,2.2
2019-04-12T00:04:55.358Z,2.2
2019-04-12T00:06:03.694Z,2.3
2019-04-12T00:07:10.894Z,2.3
2019-04-12T00:08:18.089Z,2.3
2019-04-12T00:09:29.546Z,2.3
2019-04-12T00:10:36.501Z,2.3
2019-04-12T00:11:43.424Z,2.3
2019-04-12T00:12:50.356Z,2.3
2019-04-12T00:13:57.559Z,2.4
2019-04-12T00:15:04.756Z,2.4
2019-04-12T00:16:14.925Z,2.4
2019-04-12T00:17:22.142Z,2.3
2019-04-12T00:18:29.066Z,2.4
2019-04-12T00:19:35.988Z,2.4
2019-04-12T00:20:45.707Z,2.4
2019-04-12T00:21:52.923Z,2.4
2019-04-12T00:23:00.105Z,2.3
2019-04-12T00:24:07.311Z,2.3
2019-04-12T00:25:18.061Z,2.3
2019-04-12T00:26:25.005Z,2.3
2019-04-12T00:27:32.201Z,2.3
2019-04-12T00:28:39.396Z,2.3
2019-04-12T00:29:50.602Z,2.3
2019-04-12T00:30:58.520Z,2.3
2019-04-12T00:32:05.718Z,2.3
2019-04-12T00:33:12.920Z,2.3
2019-04-12T00:34:24.080Z,2.3
2019-04-12T00:35:31.350Z,2.3
2019-04-12T00:36:38.266Z,2.3
2019-04-12T00:37:45.466Z,2.2
2019-04-12T00:38:52.656Z,2.2
2019-04-12T00:40:04.297Z,2.2
2019-04-12T00:41:10.947Z,2.1
2019-04-12T00:42:18.145Z,2.1
2019-04-12T00:43:25.341Z,2.1
2019-04-12T00:44:34.731Z,2
2019-04-12T00:45:41.928Z,2
2019-04-12T00:46:49.125Z,2
2019-04-12T00:47:56.336Z,2
2019-04-12T00:49:03.533Z,2
2019-04-12T00:50:12.592Z,2
2019-04-12T00:51:19.791Z,1.9
2019-04-12T00:52:26.709Z,1.9
2019-04-12T00:53:33.627Z,1.9
2019-04-12T00:54:50.160Z,1.9
2019-04-12T00:55:57.946Z,1.9
2019-04-12T00:57:05.147Z,1.9
2019-04-12T00:58:16.899Z,1.8
2019-04-12T00:59:24.151Z,1.8
2019-04-12T01:00:31.345Z,1.8
2019-04-12T01:01:38.259Z,1.7
2019-04-12T01:02:46.765Z,1.7
2019-04-12T01:03:54.044Z,1.7
2019-04-12T01:05:00.973Z,1.7
2019-04-12T01:06:08.164Z,1.6
2019-04-12T01:07:20.632Z,1.6
2019-04-12T01:08:27.891Z,1.5
2019-04-12T01:09:35.090Z,1.5
2019-04-12T01:10:42.297Z,1.5
2019-04-12T01:11:49.189Z,1.5
2019-04-12T01:12:58.298Z,1.5
2019-04-12T01:14:05.497Z,1.5
2019-04-12T01:15:12.422Z,1.4
2019-04-12T01:16:19.622Z,1.4
2019-04-12T01:17:28.908Z,1.3
2019-04-12T01:18:39.235Z,1.3
2019-04-12T01:19:46.161Z,1.2
2019-04-12T01:20:53.349Z,1.2
2019-04-12T01:22:00.542Z,1.2
2019-04-12T01:23:11.605Z,1.2
2019-04-12T01:24:18.819Z,1.2
2019-04-12T01:25:26.007Z,1.1
2019-04-12T01:26:32.662Z,1.1
2019-04-12T01:27:39.859Z,1.1
2019-04-12T01:28:49.387Z,1
2019-04-12T01:29:56.586Z,1
2019-04-12T01:31:03.781Z,1
2019-04-12T01:32:10.972Z,0.9
2019-04-12T01:33:18.177Z,0.9
2019-04-12T01:34:25.373Z,0.8
2019-04-12T01:35:32.572Z,0.8
2019-04-12T01:36:39.769Z,0.7
2019-04-12T01:37:46.958Z,0.6
2019-04-12T01:38:53.878Z,0.5
2019-04-12T01:40:00.531Z,0.4
2019-04-12T01:41:07.726Z,0.3
2019-04-12T01:42:14.687Z,0.3
2019-04-12T01:43:21.935Z,0.2
2019-04-12T01:44:29.121Z,0.1
2019-04-12T01:45:36.350Z,0.1
2019-04-12T01:46:43.270Z,0.1
2019-04-12T01:47:50.466Z,0
2019-04-12T01:48:57.658Z,0
2019-04-12T01:50:04.578Z,0
2019-04-12T01:51:26.422Z,0
2019-04-12T01:52:33.344Z,-0.1
2019-04-12T01:53:40.541Z,-0.1
2019-04-12T01:54:47.750Z,-0.1
2019-04-12T01:55:54.666Z,-0.2
2019-04-12T01:57:01.877Z,-0.2
2019-04-12T01:58:09.076Z,-0.2
2019-04-12T01:59:15.732Z,-0.2
2019-04-12T02:00:22.929Z,-0.3
2019-04-12T02:01:29.865Z,-0.3
2019-04-12T02:02:36.788Z,-0.3
2019-04-12T02:03:43.984Z,-0.3
2019-04-12T02:04:51.182Z,-0.3
2019-04-12T02:05:58.106Z,-0.4
2019-04-12T02:07:05.302Z,-0.3
2019-04-12T02:08:12.497Z,-0.4
2019-04-12T02:09:19.691Z,-0.4
2019-04-12T02:10:26.609Z,-0.4
2019-04-12T02:11:33.803Z,-0.4
2019-04-12T02:12:41.005Z,-0.4
2019-04-12T02:13:48.209Z,-0.5
2019-04-12T02:14:55.410Z,-0.5
2019-04-12T02:16:02.608Z,-0.5
2019-04-12T02:17:09.806Z,-0.5
2019-04-12T02:18:16.731Z,-0.6
2019-04-12T02:19:23.925Z,-0.6
2019-04-12T02:20:31.121Z,-0.6
2019-04-12T02:21:38.371Z,-0.6
2019-04-12T02:22:45.564Z,-0.6
2019-04-12T02:23:52.486Z,-0.6
2019-04-12T02:24:59.684Z,-0.7
2019-04-12T02:26:06.605Z,-0.7
2019-04-12T02:27:13.802Z,-0.7
2019-04-12T02:28:20.732Z,-0.7
2019-04-12T02:29:27.929Z,-0.7
2019-04-12T02:30:35.131Z,-0.8
2019-04-12T02:31:42.337Z,-0.8
2019-04-12T02:32:49.264Z,-0.8
2019-04-12T02:33:56.474Z,-0.8
2019-04-12T02:35:03.674Z,-0.8
2019-04-12T02:36:10.873Z,-0.8
2019-04-12T02:37:18.071Z,-0.8
2019-04-12T02:38:25.275Z,-0.8
2019-04-12T02:39:32.704Z,-0.8
2019-04-12T02:40:39.907Z,-0.9
2019-04-12T02:41:47.107Z,-0.8
2019-04-12T02:42:54.382Z,-0.9
2019-04-12T02:44:01.568Z,-0.9
2019-04-12T02:45:08.761Z,-0.9
2019-04-12T02:46:15.691Z,-0.9
2019-04-12T02:47:22.956Z,-1
2019-04-12T02:48:29.900Z,-1
2019-04-12T02:49:37.090Z,-1
2019-04-12T02:50:44.310Z,-1
2019-04-12T02:51:51.239Z,-1.1
2019-04-12T02:52:58.159Z,-1.1
2019-04-12T02:54:05.366Z,-1.1
2019-04-12T02:55:12.293Z,-1.1
2019-04-12T02:56:19.214Z,-1.1
2019-04-12T02:57:26.408Z,-1.2
2019-04-12T02:58:33.318Z,-1.1
2019-04-12T02:59:40.256Z,-1.1
2019-04-12T03:00:47.502Z,-1.1
2019-04-12T03:01:54.711Z,-1.1
2019-04-12T03:03:01.937Z,-1.2
2019-04-12T03:04:09.131Z,-1.2
2019-04-12T03:05:16.358Z,-1.1
2019-04-12T03:06:23.560Z,-1.2
2019-04-12T03:07:30.753Z,-1.2
2019-04-12T03:08:37.945Z,-1.1
2019-04-12T03:09:45.142Z,-1.1
2019-04-12T03:10:52.339Z,-1.2
2019-04-12T03:11:59.536Z,-1.2
2019-04-12T03:13:06.730Z,-1.2
2019-04-12T03:14:13.934Z,-1.2
2019-04-12T03:15:21.121Z,-1.2
2019-04-12T03:16:28.327Z,-1.2
2019-04-12T03:17:35.558Z,-1.2
2019-04-12T03:18:42.746Z,-1.2
2019-04-12T03:19:49.681Z,-1.2
2019-04-12T03:20:56.876Z,-1.2
2019-04-12T03:22:04.067Z,-1.2
2019-04-12T03:23:11.263Z,-1.2
2019-04-12T03:24:18.463Z,-1.2
2019-04-12T03:25:25.653Z,-1.2
2019-04-12T03:26:32.579Z,-1.2
2019-04-12T03:27:39.773Z,-1.3
2019-04-12T03:28:46.973Z,-1.3
2019-04-12T03:29:53.899Z,-1.3
2019-04-12T03:31:01.098Z,-1.2
2019-04-12T03:32:08.045Z,-1.3
2019-04-12T03:33:15.291Z,-1.3
2019-04-12T03:34:22.483Z,-1.2
2019-04-12T03:35:29.670Z,-1.3
2019-04-12T03:36:36.907Z,-1.3
2019-04-12T03:37:44.100Z,-1.3
2019-04-12T03:38:51.292Z,-1.3
2019-04-12T03:39:58.590Z,-1.3
2019-04-12T03:41:05.787Z,-1.3
2019-04-12T03:42:12.978Z,-1.3
2019-04-12T03:43:20.174Z,-1.3
2019-04-12T03:44:27.386Z,-1.3
2019-04-12T03:45:34.574Z,-1.3
2019-04-12T03:46:41.770Z,-1.3
2019-04-12T03:47:48.980Z,-1.3
2019-04-12T03:48:56.175Z,-1.3
2019-04-12T03:50:03.107Z,-1.3
2019-04-12T03:51:10.298Z,-1.4
2019-04-12T03:52:17.491Z,-1.4
2019-04-12T03:53:24.687Z,-1.4
2019-04-12T03:54:31.880Z,-1.5
2019-04-12T03:55:38.808Z,-1.5
2019-04-12T03:56:45.727Z,-1.5
2019-04-12T03:57:52.926Z,-1.4
2019-04-12T03:59:00.117Z,-1.4
2019-04-12T04:00:07.309Z,-1.4
2019-04-12T04:01:14.503Z,-1.4
2019-04-12T04:02:21.712Z,-1.4
2019-04-12T04:03:28.911Z,-1.4
2019-04-12T04:04:36.104Z,-1.4
2019-04-12T04:05:43.301Z,-1.4
2019-04-12T04:06:50.494Z,-1.4
2019-04-12T04:07:57.697Z,-1.4
2019-04-12T04:09:04.622Z,-1.4
2019-04-12T04:10:11.817Z,-1.4
2019-04-12T04:11:18.739Z,-1.4
2019-04-12T04:12:25.396Z,-1.5
2019-04-12T04:13:32.591Z,-1.4
2019-04-12T04:14:41.596Z,-1.4
2019-04-12T04:15:48.520Z,-1.4
2019-04-12T04:16:55.449Z,-1.4
2019-04-12T04:18:02.692Z,-1.4
2019-04-12T04:19:09.879Z,-1.4
2019-04-12T04:20:20.069Z,-1.4
2019-04-12T04:21:27.714Z,-1.4
2019-04-12T04:22:34.639Z,-1.4
2019-04-12T04:23:41.847Z,-1.3
2019-04-12T04:24:49.087Z,-1.3
2019-04-12T04:25:56.278Z,-1.3
2019-04-12T04:27:02.932Z,-1.3
2019-04-12T04:28:10.128Z,-1.2
2019-04-12T04:29:17.056Z,-1.2
2019-04-12T04:30:24.258Z,-1.2
2019-04-12T04:31:31.446Z,-1.2
2019-04-12T04:32:38.652Z,-1.1
2019-04-12T04:33:45.850Z,-1.1
2019-04-12T04:34:53.051Z,-1.1
2019-04-12T04:36:00.242Z,-1
2019-04-12T04:37:07.444Z,-0.9
2019-04-12T04:38:14.635Z,-0.9
2019-04-12T04:39:21.557Z,-0.8
2019-04-12T04:40:28.478Z,-0.7
2019-04-12T04:41:35.674Z,-0.7
2019-04-12T04:42:42.895Z,-0.7
2019-04-12T04:43:49.551Z,-0.7
2019-04-12T04:44:56.472Z,-0.6
2019-04-12T04:46:03.669Z,-0.6
2019-04-12T04:47:10.872Z,-0.6
2019-04-12T04:48:17.784Z,-0.6
2019-04-12T04:49:24.710Z,-0.5
2019-04-12T04:50:31.904Z,-0.5
2019-04-12T04:51:39.098Z,-0.5
2019-04-12T04:52:46.023Z,-0.5
2019-04-12T04:53:53.222Z,-0.5
2019-04-12T04:55:00.431Z,-0.4
2019-04-12T04:56:07.608Z,-0.4
2019-04-12T04:57:14.535Z,-0.4
2019-04-12T04:58:21.730Z,-0.3
2019-04-12T04:59:28.673Z,-0.3
2019-04-12T05:00:35.599Z,-0.2
2019-04-12T05:01:42.800Z,-0.2
2019-04-12T05:02:49.722Z,-0.2
2019-04-12T05:03:56.363Z,-0.1
2019-04-12T05:05:03.553Z,0
2019-04-12T05:06:10.491Z,0
2019-04-12T05:07:17.676Z,0
2019-04-12T05:08:24.874Z,0
2019-04-12T05:09:32.082Z,0
2019-04-12T05:10:39.282Z,0
2019-04-12T05:11:46.483Z,0
2019-04-12T05:12:53.681Z,0.1
2019-04-12T05:14:00.613Z,0.2
2019-04-12T05:15:07.811Z,0.2
2019-04-12T05:16:15.019Z,0.2
2019-04-12T05:17:21.927Z,0.2
2019-04-12T05:18:29.146Z,0.3
2019-04-12T05:19:36.325Z,0.4
2019-04-12T05:20:43.524Z,0.4
2019-04-12T05:21:50.719Z,0.4
2019-04-12T05:22:57.921Z,0.5
2019-04-12T05:24:04.872Z,0.5
2019-04-12T05:25:12.064Z,0.5
2019-04-12T05:26:19.264Z,0.5
2019-04-12T05:27:26.461Z,0.5
2019-04-12T05:28:33.651Z,0.6
2019-04-12T05:29:40.576Z,0.6
2019-04-12T05:30:47.775Z,0.6
2019-04-12T05:31:54.696Z,0.6
2019-04-12T05:33:01.906Z,0.6
2019-04-12T05:34:09.102Z,0.6
2019-04-12T05:35:16.302Z,0.6
2019-04-12T05:36:23.534Z,0.7
2019-04-12T05:37:30.732Z,0.8
2019-04-12T05:38:37.928Z,0.8
2019-04-12T05:39:45.121Z,0.8
2019-04-12T05:40:52.083Z,0.9
2019-04-12T05:42:01.379Z,1
2019-04-12T05:43:23.221Z,1
2019-04-12T05:44:30.415Z,1
2019-04-12T05:45:37.610Z,1
2019-04-12T05:46:44.811Z,1.1
2019-04-12T05:47:51.741Z,1.1
2019-04-12T05:48:58.940Z,1.2
2019-04-12T05:50:05.866Z,1.2
2019-04-12T05:51:13.060Z,1.3
2019-04-12T05:52:21.223Z,1.3
2019-04-12T05:53:31.994Z,1.3
2019-04-12T05:54:39.214Z,1.4
2019-04-12T05:55:46.441Z,1.4
2019-04-12T05:56:57.836Z,1.5
2019-04-12T05:58:04.760Z,1.5
2019-04-12T05:59:11.957Z,1.5
2019-04-12T06:00:19.153Z,1.5
2019-04-12T06:01:26.361Z,1.6
2019-04-12T06:02:33.621Z,1.6
2019-04-12T06:03:40.543Z,1.6
2019-04-12T06:04:47.460Z,1.7
2019-04-12T06:05:54.390Z,1.7
2019-04-12T06:07:01.584Z,1.7
2019-04-12T06:08:08.779Z,1.7
2019-04-12T06:09:15.973Z,1.8
2019-04-12T06:10:23.169Z,1.8
2019-04-12T06:11:30.098Z,1.9
2019-04-12T06:12:37.297Z,1.9
2019-04-12T06:13:44.495Z,1.9
2019-04-12T06:14:51.422Z,1.9
2019-04-12T06:15:58.620Z,2
2019-04-12T06:17:05.820Z,2
2019-04-12T06:18:13.188Z,2
2019-04-12T06:19:20.470Z,2.1
2019-04-12T06:20:27.394Z,2.1
2019-04-12T06:21:34.315Z,2.1
2019-04-12T06:22:41.518Z,2.1
2019-04-12T06:23:48.452Z,2.1
2019-04-12T06:24:55.646Z,2.1
2019-04-12T06:26:02.571Z,2.1
2019-04-12T06:27:11.107Z,2.2
2019-04-12T06:28:18.309Z,2.2
2019-04-12T06:29:25.508Z,2.2
2019-04-12T06:30:32.735Z,2.2
2019-04-12T06:31:39.937Z,2.3
2019-04-12T06:32:47.136Z,2.3
2019-04-12T06:33:54.076Z,2.4
2019-04-12T06:35:01.276Z,2.4
2019-04-12T06:36:07.930Z,2.4
2019-04-12T06:37:15.128Z,2.4
2019-04-12T06:38:22.327Z,2.4
2019-04-12T06:39:29.526Z,2.5
2019-04-12T06:40:36.715Z,2.5
2019-04-12T06:41:43.916Z,2.5
2019-04-12T06:42:50.842Z,2.5
2019-04-12T06:43:58.042Z,2.5
2019-04-12T06:45:05.239Z,2.5
2019-04-12T06:46:12.177Z,2.6
2019-04-12T06:47:19.371Z,2.6
2019-04-12T06:48:26.567Z,2.6
2019-04-12T06:49:33.766Z,2.6
2019-04-12T06:50:40.693Z,2.6
2019-04-12T06:51:47.894Z,2.7
2019-04-12T06:52:55.085Z,2.8
2019-04-12T06:54:02.282Z,2.8
2019-04-12T06:55:09.214Z,2.9
2019-04-12T06:56:16.414Z,2.9
2019-04-12T06:57:24.280Z,2.9
2019-04-12T06:58:31.463Z,3
2019-04-12T06:59:38.392Z,3.1
2019-04-12T07:00:45.317Z,3.1
2019-04-12T07:01:52.534Z,3.1
2019-04-12T07:02:59.734Z,3.2
2019-04-12T07:04:06.932Z,3.2
2019-04-12T07:05:14.129Z,3.3
2019-04-12T07:06:21.330Z,3.1
2019-04-12T07:07:28.522Z,3.2
2019-04-12T07:08:35.760Z,3.2
2019-04-12T07:09:42.686Z,3.2
2019-04-12T07:10:49.888Z,3.3
2019-04-12T07:11:57.085Z,3.3
2019-04-12T07:13:04.283Z,3.2
2019-04-12T07:14:11.212Z,3.3
2019-04-12T07:15:18.412Z,3.4
2019-04-12T07:16:25.062Z,3.4
2019-04-12T07:17:31.995Z,3.5
2019-04-12T07:18:39.191Z,3.6
2019-04-12T07:19:46.397Z,3.6
2019-04-12T07:20:53.600Z,3.7
2019-04-12T07:22:00.522Z,3.8
2019-04-12T07:23:07.453Z,3.7
2019-04-12T07:24:14.664Z,3.7
2019-04-12T07:25:21.851Z,3.7
2019-04-12T07:26:29.047Z,3.9
2019-04-12T07:27:35.968Z,3.9
2019-04-12T07:28:43.175Z,3.9
2019-04-12T07:29:50.086Z,4
2019-04-12T07:30:57.818Z,4
2019-04-12T07:32:05.010Z,4
2019-04-12T07:33:12.209Z,4.1
2019-04-12T07:34:19.403Z,4.2
2019-04-12T07:35:26.598Z,4.1
2019-04-12T07:36:33.798Z,4.2
2019-04-12T07:37:41.002Z,4.2
2019-04-12T07:38:48.200Z,4.1
2019-04-12T07:39:54.847Z,4.1
2019-04-12T07:41:02.043Z,4.2
2019-04-12T07:42:09.254Z,4.2
2019-04-12T07:43:16.452Z,4.3
2019-04-12T07:44:23.657Z,4.3
2019-04-12T07:45:30.853Z,4.2
2019-04-12T07:46:37.783Z,4.3
2019-04-12T07:47:44.991Z,4.4
2019-04-12T07:48:51.926Z,4.6
2019-04-12T07:49:59.129Z,4.7
2019-04-12T07:51:06.059Z,4.8
2019-04-12T07:52:13.252Z,4.9
2019-04-12T07:53:20.451Z,4.6
2019-04-12T07:54:27.383Z,4.6
2019-04-12T07:55:34.097Z,4.5
2019-04-12T07:56:41.300Z,4.4
2019-04-12T07:57:48.503Z,4.4
2019-04-12T07:58:55.705Z,4.3
2019-04-12T08:00:02.910Z,4.2
2019-04-12T08:01:10.115Z,4.1
2019-04-12T08:02:17.318Z,4.2
2019-04-12T08:03:24.269Z,4.3
2019-04-12T08:04:31.509Z,4.3
2019-04-12T08:05:38.711Z,4.5
2019-04-12T08:06:45.940Z,4.4
2019-04-12T08:07:52.873Z,4.5
2019-04-12T08:09:00.074Z,4.4
2019-04-12T08:10:07.276Z,4.4
2019-04-12T08:11:14.474Z,4.5
2019-04-12T08:12:21.705Z,4.6
2019-04-12T08:13:28.362Z,4.7
2019-04-12T08:14:35.564Z,4.5
2019-04-12T08:15:42.763Z,4.6
2019-04-12T08:16:49.967Z,4.7
2019-04-12T08:17:57.171Z,4.8
2019-04-12T08:19:04.374Z,4.9
2019-04-12T08:20:11.571Z,4.8
2019-04-12T08:21:18.775Z,4.7
2019-04-12T08:22:25.698Z,4.6
2019-04-12T08:23:32.629Z,4.7
2019-04-12T08:24:39.008Z,4.9
2019-04-12T08:25:46.209Z,5.1
2019-04-12T08:26:53.419Z,5.2
2019-04-12T08:28:00.611Z,5.3
2019-04-12T08:29:07.809Z,5.4
2019-04-12T08:30:15.006Z,5.6
2019-04-12T08:31:22.209Z,5.7
2019-04-12T08:32:29.419Z,5.5
2019-04-12T08:33:36.618Z,5.5
2019-04-12T08:34:43.816Z,5.6
2019-04-12T08:35:51.019Z,5.7
2019-04-12T08:36:58.216Z,5.5
2019-04-12T08:38:06.076Z,5.7
2019-04-12T08:39:13.278Z,5.7
2019-04-12T08:40:20.478Z,5.6
2019-04-12T08:41:27.413Z,5.5
2019-04-12T08:42:36.579Z,5.3
2019-04-12T08:43:43.773Z,5.3
2019-04-12T08:44:50.981Z,5.3
2019-04-12T08:45:57.906Z,5.5
2019-04-12T08:47:04.855Z,5.1
2019-04-12T08:48:12.142Z,5.3
2019-04-12T08:49:19.428Z,5.7
2019-04-12T08:50:26.733Z,5.9
2019-04-12T08:51:33.989Z,5.8
2019-04-12T08:52:41.268Z,5.8
2019-04-12T08:53:48.581Z,5.9
2019-04-12T08:54:55.792Z,6.1
2019-04-12T08:56:03.079Z,6.1
2019-04-12T08:57:10.134Z,6
2019-04-12T08:58:17.390Z,6.1
2019-04-12T08:59:24.713Z,6.4
2019-04-12T09:00:32.014Z,6.5
2019-04-12T09:01:39.329Z,6.5
2019-04-12T09:02:59.381Z,6.6
2019-04-12T09:04:06.706Z,6.3
2019-04-12T09:05:14.033Z,6.2
2019-04-12T09:06:21.149Z,6.2
2019-04-12T09:07:28.652Z,6.4
2019-04-12T09:08:35.983Z,6.6
2019-04-12T09:09:43.413Z,6.3
2019-04-12T09:10:50.981Z,6.2
2019-04-12T09:11:58.287Z,6.2
2019-04-12T09:13:05.813Z,6
2019-04-12T09:14:13.187Z,6
2019-04-12T09:15:20.554Z,6.2
2019-04-12T09:16:27.858Z,6.4
2019-04-12T09:17:35.201Z,6.2
2019-04-12T09:18:42.421Z,6.4
2019-04-12T09:19:49.931Z,6.3
2019-04-12T09:20:57.243Z,6.5
2019-04-12T09:22:04.686Z,6.6
2019-04-12T09:23:11.964Z,6.4
2019-04-12T09:24:19.062Z,6.2
2019-04-12T09:25:26.614Z,6.4
2019-04-12T09:26:34.109Z,6.9
2019-04-12T09:27:41.566Z,7.2
2019-04-12T09:28:48.988Z,7.4
2019-04-12T09:29:56.372Z,7.4
2019-04-12T09:31:04.107Z,7.2
2019-04-12T09:32:11.477Z,6.8
2019-04-12T09:33:19.017Z,6.7
2019-04-12T09:34:25.986Z,6.8
2019-04-12T09:35:33.187Z,6.8
2019-04-12T09:36:40.319Z,6.8
2019-04-12T09:37:47.238Z,7.1
2019-04-12T09:38:54.167Z,7.4
2019-04-12T09:40:01.373Z,7.2
2019-04-12T09:41:08.307Z,6.7
2019-04-12T09:42:15.513Z,6.7
2019-04-12T09:43:22.721Z,7.1
2019-04-12T09:44:29.920Z,7.6
2019-04-12T09:45:36.846Z,7.8
2019-04-12T09:46:44.271Z,8
2019-04-12T09:47:51.198Z,8.2
2019-04-12T09:48:58.404Z,8.2
2019-04-12T09:50:05.605Z,8
2019-04-12T09:51:14.945Z,8
2019-04-12T09:52:22.172Z,7.8
2019-04-12T09:53:29.371Z,7.8
2019-04-12T09:54:36.572Z,7.7
2019-04-12T09:55:43.775Z,7.5
2019-04-12T09:56:50.984Z,7.5
2019-04-12T09:57:58.183Z,7.6
2019-04-12T09:59:05.384Z,7.9
2019-04-12T10:00:12.586Z,7.9
2019-04-12T10:01:19.519Z,7.9
2019-04-12T10:02:26.720Z,8.1
2019-04-12T10:03:33.652Z,8
2019-04-12T10:04:40.583Z,8
2019-04-12T10:05:47.515Z,7.7
2019-04-12T10:06:57.432Z,7.4
2019-04-12T10:08:04.632Z,7.7
2019-04-12T10:09:27.305Z,7.9
2019-04-12T10:10:35.005Z,7.9
2019-04-12T10:11:42.207Z,8
2019-04-12T22:00:05.831Z,2.5
2019-04-12T22:01:13.025Z,2.5
2019-04-12T22:02:20.223Z,2.5
2019-04-12T22:03:27.421Z,2.5
2019-04-12T22:04:47.598Z,2.5
2019-04-12T22:05:54.532Z,2.4
2019-04-12T22:07:01.730Z,2.4
2019-04-12T22:08:08.659Z,2.4
2019-04-12T22:09:15.309Z,2.4
2019-04-12T22:10:22.514Z,2.4
2019-04-12T22:11:29.764Z,2.4
2019-04-12T22:12:36.685Z,2.4
2019-04-12T22:13:43.889Z,2.4
2019-04-12T22:14:51.083Z,2.4
2019-04-12T22:15:58.267Z,2.4
2019-04-12T22:17:05.475Z,2.4
2019-04-12T22:18:11.567Z,2.4
2019-04-12T22:19:18.767Z,2.4
2019-04-12T22:20:25.965Z,2.4
2019-04-12T22:21:33.562Z,2.4
2019-04-12T22:22:40.491Z,2.4
2019-04-12T22:23:47.686Z,2.4
2019-04-12T22:24:54.894Z,2.4
2019-04-12T22:26:02.091Z,2.3
2019-04-12T22:27:09.289Z,2.3
2019-04-12T22:28:16.213Z,2.3
2019-04-12T22:29:23.410Z,2.3
2019-04-12T22:30:30.616Z,2.3
2019-04-12T22:31:37.897Z,2.3
2019-04-12T22:32:45.091Z,2.3
2019-04-12T22:33:53.966Z,2.3
2019-04-12T22:35:00.894Z,2.3
2019-04-12T22:36:08.088Z,2.3
2019-04-12T22:37:15.289Z,2.3
2019-04-12T22:38:22.489Z,2.3
2019-04-12T22:39:29.423Z,2.3
2019-04-12T22:40:36.348Z,2.3
2019-04-12T22:41:43.549Z,2.2
2019-04-12T22:42:50.474Z,2.3
2019-04-12T22:43:57.672Z,2.3
2019-04-12T22:45:04.872Z,2.3
2019-04-12T22:46:12.070Z,2.3
2019-04-12T22:47:19.001Z,2.2
2019-04-12T22:48:26.200Z,2.2
2019-04-12T22:49:33.123Z,2.2
2019-04-12T22:50:40.045Z,2.2
2019-04-12T22:51:47.246Z,2.2
2019-04-12T22:52:53.620Z,2.2
2019-04-12T22:54:00.841Z,2.2
2019-04-12T22:55:08.089Z,2.2
2019-04-12T22:56:15.290Z,2.2
2019-04-12T22:57:22.216Z,2.2
2019-04-12T22:58:29.417Z,2.2
2019-04-12T22:59:36.613Z,2.3
2019-04-12T23:00:43.808Z,2.2
2019-04-12T23:01:51.005Z,2.2
2019-04-12T23:02:58.207Z,2.3
2019-04-12T23:04:06.378Z,2.3
2019-04-12T23:05:13.313Z,2.3
2019-04-12T23:06:20.515Z,2.3
2019-04-12T23:07:27.720Z,2.3
2019-04-12T23:08:34.369Z,2.3
2019-04-12T23:09:41.564Z,2.3
2019-04-12T23:10:48.767Z,2.3
2019-04-12T23:11:55.958Z,2.2
2019-04-12T23:13:02.889Z,2.2
2019-04-12T23:14:10.084Z,2.2
2019-04-12T23:15:17.281Z,2.2
2019-04-12T23:16:24.481Z,2.2
2019-04-12T23:17:31.409Z,2.2
2019-04-12T23:18:38.606Z,2.2
2019-04-12T23:19:45.528Z,2.2
2019-04-12T23:20:52.748Z,2.1
2019-04-12T23:21:59.924Z,2.2
2019-04-12T23:23:07.126Z,2.1
2019-04-12T23:24:14.049Z,2.1
2019-04-12T23:25:21.250Z,2.1
2019-04-12T23:26:28.182Z,2.1
2019-04-12T23:27:35.128Z,2.1
2019-04-12T23:28:42.327Z,2.1
2019-04-12T23:29:49.253Z,2.1
2019-04-12T23:30:56.445Z,2.1
2019-04-12T23:32:03.365Z,2.1
2019-04-12T23:33:10.571Z,2.1
2019-04-12T23:34:18.041Z,2.1
2019-04-12T23:35:25.243Z,2.1
2019-04-12T23:36:32.439Z,2.1
2019-04-12T23:37:39.649Z,2.1
2019-04-12T23:38:46.569Z,2.1
2019-04-12T23:39:53.774Z,2.1
2019-04-12T23:41:00.964Z,2.1
2019-04-12T23:42:07.887Z,2.1
2019-04-12T23:43:14.527Z,2.1
2019-04-12T23:44:21.720Z,2.1
2019-04-12T23:45:28.916Z,2.1
2019-04-12T23:46:35.838Z,2
2019-04-12T23:47:42.803Z,2.1
2019-04-12T23:48:49.789Z,2.1
2019-04-12T23:49:56.979Z,2.1
2019-04-12T23:51:04.181Z,2
2019-04-12T23:52:13.151Z,2
2019-04-12T23:53:20.073Z,2
2019-04-12T23:54:27.271Z,2
2019-04-12T23:55:34.511Z,2
2019-04-12T23:56:41.702Z,2
2019-04-12T23:57:48.891Z,2
2019-04-12T23:58:56.092Z,2
